DEICE CYXP-CYLA
Flight info
| Callsign | DEICE |
|---|---|
| Flight time | 2h 49m |
| Altitude | 4500 |
| Route | YXP |
| Aircraft | PA24/L-SDGRY/S |
Departure
| Time | 2026-04-26 08:18 |
|---|---|
| Airport | Pangnirtung Airport (CYXP) |
Arrival
| Time | 2026-04-26 11:07 |
|---|---|
| Airport | Aupaluk Airport (CYLA) |
| Time | Latitude | Longitude | Altitude | Speed | Heading |
|---|---|---|---|---|---|
| 2026-04-26 08:13 | 66.14633 | -65.70529 | 84 ft | 0 kts | 155° |
| 2026-04-26 08:16 | 66.14630 | -65.70523 | 84 ft | 2 kts | 122° |
| 2026-04-26 08:16 | 66.14651 | -65.70497 | 85 ft | 5 kts | 332° |
| 2026-04-26 08:16 | 66.14662 | -65.70524 | 85 ft | 1 kts | 256° |
| 2026-04-26 08:16 | 66.14659 | -65.70535 | 84 ft | 0 kts | 240° |
| 2026-04-26 08:17 | 66.14657 | -65.70544 | 84 ft | 11 kts | 239° |
| 2026-04-26 08:17 | 66.14488 | -65.71292 | 107 ft | 73 kts | 243° |
| 2026-04-26 08:17 | 66.14231 | -65.72519 | 294 ft | 81 kts | 243° |
| 2026-04-26 08:18 | 66.13937 | -65.73757 | 480 ft | 87 kts | 237° |
| 2026-04-26 08:18 | 66.13582 | -65.75043 | 677 ft | 90 kts | 235° |
| 2026-04-26 08:18 | 66.13196 | -65.76374 | 819 ft | 99 kts | 236° |
| 2026-04-26 08:18 | 66.12829 | -65.77746 | 1073 ft | 95 kts | 236° |
| 2026-04-26 08:19 | 66.12571 | -65.78635 | 1191 ft | 97 kts | 233° |
| 2026-04-26 08:19 | 66.12008 | -65.80325 | 1474 ft | 97 kts | 228° |
| 2026-04-26 08:19 | 66.11532 | -65.81529 | 1672 ft | 99 kts | 227° |
| 2026-04-26 08:19 | 66.11213 | -65.82361 | 1806 ft | 99 kts | 227° |
| 2026-04-26 08:20 | 66.10725 | -65.83551 | 1996 ft | 100 kts | 216° |
| 2026-04-26 08:20 | 66.10042 | -65.83982 | 2111 ft | 105 kts | 186° |
| 2026-04-26 08:20 | 66.09313 | -65.84015 | 2377 ft | 108 kts | 183° |
| 2026-04-26 08:20 | 66.08585 | -65.84026 | 2744 ft | 106 kts | 182° |
| 2026-04-26 08:21 | 66.07829 | -65.83956 | 3028 ft | 109 kts | 177° |
| 2026-04-26 08:21 | 66.07062 | -65.83772 | 3312 ft | 113 kts | 176° |
| 2026-04-26 08:21 | 66.06271 | -65.83547 | 3589 ft | 115 kts | 175° |
| 2026-04-26 08:21 | 66.05479 | -65.83277 | 3889 ft | 115 kts | 174° |
| 2026-04-26 08:22 | 66.04706 | -65.83024 | 4142 ft | 112 kts | 175° |
| 2026-04-26 08:22 | 66.03912 | -65.82939 | 4318 ft | 116 kts | 190° |
| 2026-04-26 08:22 | 66.03121 | -65.83543 | 4433 ft | 123 kts | 206° |
| 2026-04-26 08:22 | 66.02311 | -65.84450 | 4438 ft | 135 kts | 206° |
| 2026-04-26 08:23 | 66.01429 | -65.85389 | 4497 ft | 139 kts | 204° |
| 2026-04-26 08:23 | 66.00516 | -65.86257 | 4518 ft | 143 kts | 202° |
| 2026-04-26 08:23 | 65.99552 | -65.87069 | 4499 ft | 149 kts | 199° |
| 2026-04-26 08:23 | 65.98588 | -65.87950 | 4566 ft | 142 kts | 212° |
| 2026-04-26 08:24 | 65.97790 | -65.89261 | 4479 ft | 140 kts | 217° |
| 2026-04-26 08:24 | 65.96996 | -65.90641 | 4480 ft | 140 kts | 217° |
| 2026-04-26 08:24 | 65.96196 | -65.92032 | 4479 ft | 141 kts | 217° |
| 2026-04-26 08:24 | 65.95394 | -65.93428 | 4481 ft | 142 kts | 217° |
| 2026-04-26 08:25 | 65.94574 | -65.94860 | 4485 ft | 147 kts | 217° |
| 2026-04-26 08:25 | 65.93732 | -65.96329 | 4483 ft | 150 kts | 217° |
| 2026-04-26 08:25 | 65.92879 | -65.97823 | 4476 ft | 152 kts | 217° |
| 2026-04-26 08:25 | 65.92014 | -65.99333 | 4469 ft | 153 kts | 217° |
| 2026-04-26 08:26 | 65.91143 | -66.00856 | 4473 ft | 154 kts | 217° |
| 2026-04-26 08:26 | 65.90272 | -66.02374 | 4474 ft | 154 kts | 216° |
| 2026-04-26 08:26 | 65.89325 | -66.03513 | 4476 ft | 154 kts | 204° |
| 2026-04-26 08:26 | 65.88320 | -66.04470 | 4475 ft | 155 kts | 203° |
| 2026-04-26 08:27 | 65.87314 | -66.05439 | 4475 ft | 155 kts | 203° |
| 2026-04-26 08:27 | 65.86314 | -66.06443 | 4475 ft | 155 kts | 205° |
| 2026-04-26 08:27 | 65.85330 | -66.07560 | 4475 ft | 155 kts | 208° |
| 2026-04-26 08:27 | 65.84368 | -66.08766 | 4475 ft | 155 kts | 210° |
| 2026-04-26 08:28 | 65.83418 | -66.10026 | 4474 ft | 155 kts | 210° |
| 2026-04-26 08:28 | 65.82475 | -66.11308 | 4474 ft | 155 kts | 211° |
| 2026-04-26 08:28 | 65.81546 | -66.12577 | 4474 ft | 155 kts | 211° |
| 2026-04-26 08:28 | 65.80597 | -66.13833 | 4474 ft | 155 kts | 209° |
| 2026-04-26 08:29 | 65.79637 | -66.15046 | 4474 ft | 155 kts | 208° |
| 2026-04-26 08:29 | 65.78673 | -66.16234 | 4474 ft | 155 kts | 208° |
| 2026-04-26 08:29 | 65.77704 | -66.17402 | 4474 ft | 155 kts | 208° |
| 2026-04-26 08:29 | 65.76736 | -66.18560 | 4474 ft | 155 kts | 207° |
| 2026-04-26 08:30 | 65.75764 | -66.19719 | 4475 ft | 155 kts | 208° |
| 2026-04-26 08:30 | 65.74794 | -66.20893 | 4475 ft | 155 kts | 208° |
| 2026-04-26 08:30 | 65.73837 | -66.22060 | 4474 ft | 155 kts | 208° |
| 2026-04-26 08:30 | 65.72869 | -66.23234 | 4475 ft | 155 kts | 208° |
| 2026-04-26 08:31 | 65.71892 | -66.24435 | 4475 ft | 155 kts | 208° |
| 2026-04-26 08:31 | 65.70942 | -66.25611 | 4474 ft | 155 kts | 208° |
| 2026-04-26 08:31 | 65.69980 | -66.26794 | 4475 ft | 155 kts | 208° |
| 2026-04-26 08:31 | 65.69016 | -66.27975 | 4474 ft | 155 kts | 208° |
| 2026-04-26 08:32 | 65.68050 | -66.29153 | 4475 ft | 155 kts | 208° |
| 2026-04-26 08:32 | 65.67085 | -66.30332 | 4475 ft | 155 kts | 208° |
| 2026-04-26 08:32 | 65.66118 | -66.31509 | 4474 ft | 155 kts | 208° |
| 2026-04-26 08:32 | 65.65152 | -66.32690 | 4475 ft | 155 kts | 208° |
| 2026-04-26 08:33 | 65.64187 | -66.33858 | 4474 ft | 155 kts | 208° |
| 2026-04-26 08:33 | 65.63218 | -66.35023 | 4475 ft | 155 kts | 208° |
| 2026-04-26 08:33 | 65.62249 | -66.36193 | 4475 ft | 156 kts | 208° |
| 2026-04-26 08:33 | 65.61283 | -66.37375 | 4475 ft | 155 kts | 208° |
| 2026-04-26 08:34 | 65.60330 | -66.38544 | 4475 ft | 156 kts | 208° |
| 2026-04-26 08:34 | 65.59363 | -66.39715 | 4475 ft | 155 kts | 208° |
| 2026-04-26 08:34 | 65.58391 | -66.40880 | 4475 ft | 155 kts | 208° |
| 2026-04-26 08:34 | 65.57423 | -66.42052 | 4475 ft | 155 kts | 208° |
| 2026-04-26 08:35 | 65.56454 | -66.43217 | 4475 ft | 155 kts | 208° |
| 2026-04-26 08:35 | 65.55484 | -66.44375 | 4475 ft | 155 kts | 208° |
| 2026-04-26 08:35 | 65.54524 | -66.45517 | 4474 ft | 155 kts | 208° |
| 2026-04-26 08:35 | 65.53556 | -66.46690 | 4474 ft | 155 kts | 208° |
| 2026-04-26 08:36 | 65.52592 | -66.47862 | 4474 ft | 155 kts | 208° |
| 2026-04-26 08:36 | 65.51629 | -66.49044 | 4474 ft | 155 kts | 208° |
| 2026-04-26 08:36 | 65.50661 | -66.50215 | 4475 ft | 155 kts | 208° |
| 2026-04-26 08:36 | 65.49694 | -66.51374 | 4475 ft | 155 kts | 208° |
| 2026-04-26 08:37 | 65.48726 | -66.52531 | 4475 ft | 155 kts | 208° |
| 2026-04-26 08:37 | 65.47758 | -66.53687 | 4474 ft | 155 kts | 208° |
| 2026-04-26 08:37 | 65.46789 | -66.54840 | 4475 ft | 155 kts | 208° |
| 2026-04-26 08:37 | 65.45819 | -66.55989 | 4475 ft | 155 kts | 208° |
| 2026-04-26 08:38 | 65.44861 | -66.57125 | 4475 ft | 155 kts | 208° |
| 2026-04-26 08:38 | 65.43893 | -66.58282 | 4475 ft | 155 kts | 208° |
| 2026-04-26 08:38 | 65.42921 | -66.59430 | 4475 ft | 155 kts | 207° |
| 2026-04-26 08:38 | 65.41947 | -66.60579 | 4475 ft | 155 kts | 208° |
| 2026-04-26 08:39 | 65.40984 | -66.61752 | 4475 ft | 155 kts | 208° |
| 2026-04-26 08:39 | 65.40019 | -66.62933 | 4475 ft | 155 kts | 208° |
| 2026-04-26 08:39 | 65.39055 | -66.64104 | 4475 ft | 155 kts | 208° |
| 2026-04-26 08:39 | 65.38086 | -66.65254 | 4475 ft | 155 kts | 208° |
| 2026-04-26 08:40 | 65.37117 | -66.66406 | 4474 ft | 155 kts | 208° |
| 2026-04-26 08:40 | 65.36153 | -66.67551 | 4474 ft | 155 kts | 208° |
| 2026-04-26 08:40 | 65.35183 | -66.68682 | 4474 ft | 155 kts | 207° |
| 2026-04-26 08:40 | 65.34224 | -66.69787 | 4474 ft | 154 kts | 207° |
| 2026-04-26 08:41 | 65.33260 | -66.70917 | 4474 ft | 154 kts | 208° |
| 2026-04-26 08:41 | 65.32296 | -66.72061 | 4474 ft | 154 kts | 208° |
| 2026-04-26 08:41 | 65.31332 | -66.73204 | 4474 ft | 154 kts | 208° |
| 2026-04-26 08:41 | 65.30366 | -66.74344 | 4474 ft | 154 kts | 208° |
| 2026-04-26 08:42 | 65.29412 | -66.75478 | 4474 ft | 154 kts | 208° |
| 2026-04-26 08:42 | 65.28776 | -66.76231 | 4474 ft | 154 kts | 208° |
| 2026-04-26 08:43 | 65.27832 | -66.77346 | 4475 ft | 154 kts | 208° |
| 2026-04-26 08:43 | 65.26881 | -66.78475 | 4474 ft | 154 kts | 208° |
| 2026-04-26 08:44 | 65.25935 | -66.79595 | 5013 ft | 157 kts | 208° |
| 2026-04-26 08:44 | 65.24885 | -66.80680 | 4996 ft | 168 kts | 209° |
| 2026-04-26 08:44 | 65.23804 | -66.81763 | 4999 ft | 169 kts | 211° |
| 2026-04-26 08:44 | 65.22742 | -66.82940 | 4997 ft | 168 kts | 213° |
| 2026-04-26 08:45 | 65.21698 | -66.84195 | 4996 ft | 167 kts | 215° |
| 2026-04-26 08:45 | 65.20674 | -66.85503 | 4996 ft | 166 kts | 216° |
| 2026-04-26 08:45 | 65.19684 | -66.86770 | 5071 ft | 153 kts | 215° |
| 2026-04-26 08:45 | 65.18720 | -66.87780 | 4939 ft | 153 kts | 210° |
| 2026-04-26 08:46 | 65.17751 | -66.88789 | 4832 ft | 151 kts | 213° |
| 2026-04-26 08:46 | 65.16803 | -66.89896 | 4694 ft | 151 kts | 216° |
| 2026-04-26 08:46 | 65.15880 | -66.91050 | 4590 ft | 149 kts | 217° |
| 2026-04-26 08:46 | 65.14967 | -66.92238 | 4463 ft | 150 kts | 217° |
| 2026-04-26 08:47 | 65.14056 | -66.93405 | 4407 ft | 147 kts | 217° |
| 2026-04-26 08:47 | 65.13145 | -66.94567 | 4433 ft | 151 kts | 217° |
| 2026-04-26 08:47 | 65.12200 | -66.95777 | 4426 ft | 157 kts | 216° |
| 2026-04-26 08:47 | 65.11239 | -66.97014 | 4433 ft | 161 kts | 215° |
| 2026-04-26 08:48 | 65.10251 | -66.98266 | 4431 ft | 161 kts | 213° |
| 2026-04-26 08:48 | 65.09230 | -66.99420 | 4428 ft | 164 kts | 211° |
| 2026-04-26 08:48 | 65.08187 | -67.00538 | 4428 ft | 166 kts | 210° |
| 2026-04-26 08:48 | 65.07125 | -67.01659 | 4430 ft | 168 kts | 210° |
| 2026-04-26 08:49 | 65.06053 | -67.02773 | 4431 ft | 168 kts | 208° |
| 2026-04-26 08:49 | 65.04976 | -67.03849 | 4432 ft | 168 kts | 208° |
| 2026-04-26 08:49 | 65.03912 | -67.05004 | 4432 ft | 168 kts | 211° |
| 2026-04-26 08:49 | 65.02872 | -67.06255 | 4433 ft | 168 kts | 214° |
| 2026-04-26 08:50 | 65.01851 | -67.07567 | 4433 ft | 167 kts | 213° |
| 2026-04-26 08:50 | 65.00826 | -67.08837 | 4442 ft | 166 kts | 213° |
| 2026-04-26 08:50 | 64.99790 | -67.10050 | 4441 ft | 166 kts | 211° |
| 2026-04-26 08:50 | 64.98757 | -67.11225 | 4442 ft | 167 kts | 213° |
| 2026-04-26 08:51 | 64.96672 | -67.13693 | 4420 ft | 170 kts | 210° |
| 2026-04-26 08:51 | 64.95595 | -67.14853 | 4432 ft | 170 kts | 210° |
| 2026-04-26 08:51 | 64.94533 | -67.16067 | 4433 ft | 169 kts | 212° |
| 2026-04-26 08:52 | 64.93484 | -67.17292 | 4434 ft | 168 kts | 212° |
| 2026-04-26 08:52 | 64.92436 | -67.18499 | 4437 ft | 167 kts | 212° |
| 2026-04-26 08:52 | 64.91383 | -67.19700 | 4432 ft | 168 kts | 211° |
| 2026-04-26 08:52 | 64.90336 | -67.20838 | 4432 ft | 167 kts | 209° |
| 2026-04-26 08:53 | 64.89267 | -67.21932 | 4445 ft | 168 kts | 210° |
| 2026-04-26 08:53 | 64.88204 | -67.23080 | 4448 ft | 168 kts | 211° |
| 2026-04-26 08:53 | 64.87158 | -67.24284 | 4448 ft | 167 kts | 213° |
| 2026-04-26 08:53 | 64.86124 | -67.25511 | 4448 ft | 166 kts | 212° |
| 2026-04-26 08:54 | 64.85078 | -67.26688 | 4450 ft | 166 kts | 212° |
| 2026-04-26 08:54 | 64.84039 | -67.27913 | 4451 ft | 167 kts | 213° |
| 2026-04-26 08:54 | 64.83000 | -67.29153 | 4444 ft | 168 kts | 212° |
| 2026-04-26 08:54 | 64.81964 | -67.30460 | 4447 ft | 169 kts | 214° |
| 2026-04-26 08:55 | 64.80928 | -67.31768 | 4449 ft | 169 kts | 212° |
| 2026-04-26 08:55 | 64.79885 | -67.32945 | 4449 ft | 168 kts | 210° |
| 2026-04-26 08:55 | 64.78821 | -67.34109 | 4449 ft | 169 kts | 209° |
| 2026-04-26 08:55 | 64.77745 | -67.35240 | 4461 ft | 170 kts | 208° |
| 2026-04-26 08:56 | 64.76663 | -67.36346 | 4461 ft | 170 kts | 208° |
| 2026-04-26 08:56 | 64.75935 | -67.37110 | 4462 ft | 170 kts | 208° |
| 2026-04-26 08:56 | 64.74516 | -67.38673 | 4467 ft | 170 kts | 210° |
| 2026-04-26 08:56 | 64.73445 | -67.39852 | 4467 ft | 170 kts | 210° |
| 2026-04-26 08:57 | 64.72370 | -67.41032 | 4462 ft | 171 kts | 210° |
| 2026-04-26 08:57 | 64.71294 | -67.42206 | 4462 ft | 170 kts | 210° |
| 2026-04-26 08:57 | 64.70239 | -67.43460 | 4459 ft | 170 kts | 213° |
| 2026-04-26 08:57 | 64.69197 | -67.44758 | 4460 ft | 169 kts | 213° |
| 2026-04-26 08:58 | 64.68147 | -67.46032 | 4456 ft | 170 kts | 212° |
| 2026-04-26 08:58 | 64.67086 | -67.47255 | 4462 ft | 170 kts | 210° |
| 2026-04-26 08:58 | 64.66012 | -67.48442 | 4468 ft | 171 kts | 210° |
| 2026-04-26 08:58 | 64.64941 | -67.49621 | 4468 ft | 170 kts | 210° |
| 2026-04-26 08:59 | 64.63880 | -67.50772 | 4479 ft | 171 kts | 210° |
| 2026-04-26 08:59 | 64.62791 | -67.51942 | 4465 ft | 170 kts | 209° |
| 2026-04-26 08:59 | 64.61727 | -67.53072 | 4466 ft | 170 kts | 208° |
| 2026-04-26 08:59 | 64.60649 | -67.54212 | 4465 ft | 170 kts | 209° |
| 2026-04-26 09:00 | 64.59581 | -67.55399 | 4466 ft | 170 kts | 210° |
| 2026-04-26 09:00 | 64.58516 | -67.56589 | 4477 ft | 169 kts | 211° |
| 2026-04-26 09:00 | 64.57466 | -67.57785 | 4477 ft | 168 kts | 211° |
| 2026-04-26 09:00 | 64.56425 | -67.58975 | 4476 ft | 166 kts | 211° |
| 2026-04-26 09:01 | 64.55385 | -67.60161 | 4479 ft | 166 kts | 211° |
| 2026-04-26 09:01 | 64.54354 | -67.61347 | 4477 ft | 167 kts | 211° |
| 2026-04-26 09:01 | 64.53304 | -67.62523 | 4479 ft | 167 kts | 210° |
| 2026-04-26 09:01 | 64.52261 | -67.63698 | 4478 ft | 166 kts | 210° |
| 2026-04-26 09:02 | 64.51211 | -67.64842 | 4481 ft | 167 kts | 209° |
| 2026-04-26 09:02 | 64.50154 | -67.65956 | 4483 ft | 166 kts | 209° |
| 2026-04-26 09:02 | 64.49106 | -67.67106 | 4482 ft | 166 kts | 209° |
| 2026-04-26 09:02 | 64.48054 | -67.68244 | 4483 ft | 167 kts | 209° |
| 2026-04-26 09:03 | 64.47006 | -67.69423 | 4480 ft | 167 kts | 211° |
| 2026-04-26 09:03 | 64.45967 | -67.70610 | 4480 ft | 167 kts | 210° |
| 2026-04-26 09:03 | 64.44913 | -67.71736 | 4479 ft | 167 kts | 208° |
| 2026-04-26 09:03 | 64.43851 | -67.72849 | 4479 ft | 168 kts | 208° |
| 2026-04-26 09:04 | 64.42794 | -67.73993 | 4481 ft | 167 kts | 210° |
| 2026-04-26 09:04 | 64.41704 | -67.74850 | 4480 ft | 169 kts | 198° |
| 2026-04-26 09:04 | 64.40566 | -67.75525 | 4478 ft | 169 kts | 198° |
| 2026-04-26 09:04 | 64.39430 | -67.76217 | 4468 ft | 169 kts | 198° |
| 2026-04-26 09:05 | 64.38294 | -67.76913 | 4469 ft | 168 kts | 198° |
| 2026-04-26 09:05 | 64.37157 | -67.77593 | 4470 ft | 169 kts | 198° |
| 2026-04-26 09:05 | 64.36018 | -67.78282 | 4469 ft | 169 kts | 198° |
| 2026-04-26 09:05 | 64.35266 | -67.78733 | 4468 ft | 168 kts | 198° |
| 2026-04-26 09:06 | 64.34131 | -67.79419 | 4470 ft | 168 kts | 197° |
| 2026-04-26 09:06 | 64.32997 | -67.80104 | 4469 ft | 168 kts | 198° |
| 2026-04-26 09:06 | 64.31858 | -67.80795 | 4471 ft | 170 kts | 198° |
| 2026-04-26 09:06 | 64.30711 | -67.81490 | 4464 ft | 171 kts | 198° |
| 2026-04-26 09:07 | 64.29552 | -67.82188 | 4463 ft | 172 kts | 198° |
| 2026-04-26 09:07 | 64.28398 | -67.82890 | 4463 ft | 172 kts | 198° |
| 2026-04-26 09:07 | 64.27242 | -67.83580 | 4461 ft | 171 kts | 198° |
| 2026-04-26 09:07 | 64.26087 | -67.84281 | 4460 ft | 171 kts | 198° |
| 2026-04-26 09:08 | 64.24954 | -67.84980 | 4458 ft | 170 kts | 198° |
| 2026-04-26 09:08 | 64.23815 | -67.85680 | 4462 ft | 170 kts | 198° |
| 2026-04-26 09:08 | 64.22672 | -67.86380 | 4463 ft | 170 kts | 197° |
| 2026-04-26 09:08 | 64.21524 | -67.87067 | 4464 ft | 170 kts | 198° |
| 2026-04-26 09:09 | 64.20379 | -67.87774 | 4461 ft | 170 kts | 198° |
| 2026-04-26 09:09 | 64.19232 | -67.88480 | 4460 ft | 170 kts | 198° |
| 2026-04-26 09:09 | 64.18086 | -67.89174 | 4459 ft | 170 kts | 198° |
| 2026-04-26 09:09 | 64.16942 | -67.89874 | 4458 ft | 170 kts | 198° |
| 2026-04-26 09:10 | 64.15798 | -67.90580 | 4454 ft | 170 kts | 198° |
| 2026-04-26 09:10 | 64.14664 | -67.91277 | 4458 ft | 171 kts | 198° |
| 2026-04-26 09:10 | 64.13515 | -67.91984 | 4455 ft | 171 kts | 197° |
| 2026-04-26 09:10 | 64.12366 | -67.92693 | 4456 ft | 171 kts | 199° |
| 2026-04-26 09:11 | 64.11217 | -67.93406 | 4458 ft | 170 kts | 197° |
| 2026-04-26 09:11 | 64.10072 | -67.94123 | 4456 ft | 171 kts | 199° |
| 2026-04-26 09:11 | 64.08927 | -67.94830 | 4457 ft | 170 kts | 198° |
| 2026-04-26 09:11 | 64.07779 | -67.95505 | 4458 ft | 170 kts | 197° |
| 2026-04-26 09:12 | 64.06632 | -67.96222 | 4453 ft | 170 kts | 198° |
| 2026-04-26 09:12 | 64.05510 | -67.96917 | 4452 ft | 169 kts | 198° |
| 2026-04-26 09:12 | 64.04371 | -67.97630 | 4451 ft | 169 kts | 198° |
| 2026-04-26 09:12 | 64.03233 | -67.98333 | 4453 ft | 170 kts | 198° |
| 2026-04-26 09:13 | 64.02092 | -67.99047 | 4454 ft | 170 kts | 198° |
| 2026-04-26 09:13 | 64.00944 | -67.99753 | 4454 ft | 171 kts | 198° |
| 2026-04-26 09:13 | 63.99797 | -68.00465 | 4453 ft | 171 kts | 198° |
| 2026-04-26 09:13 | 63.98648 | -68.01171 | 4453 ft | 170 kts | 198° |
| 2026-04-26 09:14 | 63.97500 | -68.01870 | 4450 ft | 170 kts | 198° |
| 2026-04-26 09:14 | 63.96375 | -68.02588 | 4450 ft | 170 kts | 199° |
| 2026-04-26 09:14 | 63.95224 | -68.03291 | 4450 ft | 170 kts | 198° |
| 2026-04-26 09:14 | 63.94094 | -68.03993 | 4446 ft | 167 kts | 198° |
| 2026-04-26 09:15 | 63.92975 | -68.04691 | 4449 ft | 166 kts | 197° |
| 2026-04-26 09:15 | 63.91858 | -68.05408 | 4450 ft | 167 kts | 198° |
| 2026-04-26 09:15 | 63.90738 | -68.06133 | 4451 ft | 167 kts | 198° |
| 2026-04-26 09:15 | 63.89619 | -68.06853 | 4450 ft | 167 kts | 198° |
| 2026-04-26 09:16 | 63.88514 | -68.07572 | 4453 ft | 167 kts | 198° |
| 2026-04-26 09:16 | 63.87392 | -68.08289 | 4451 ft | 167 kts | 198° |
| 2026-04-26 09:16 | 63.86268 | -68.09004 | 4450 ft | 167 kts | 198° |
| 2026-04-26 09:16 | 63.85148 | -68.09718 | 4450 ft | 167 kts | 198° |
| 2026-04-26 09:17 | 63.84031 | -68.10450 | 4447 ft | 167 kts | 198° |
| 2026-04-26 09:17 | 63.82918 | -68.11182 | 4447 ft | 167 kts | 199° |
| 2026-04-26 09:17 | 63.81797 | -68.11900 | 4451 ft | 167 kts | 198° |
| 2026-04-26 09:17 | 63.80679 | -68.12633 | 4447 ft | 168 kts | 199° |
| 2026-04-26 09:18 | 63.79556 | -68.13367 | 4456 ft | 168 kts | 198° |
| 2026-04-26 09:18 | 63.78448 | -68.14076 | 4453 ft | 167 kts | 198° |
| 2026-04-26 09:18 | 63.77327 | -68.14795 | 4454 ft | 167 kts | 199° |
| 2026-04-26 09:18 | 63.76210 | -68.15527 | 4454 ft | 167 kts | 198° |
| 2026-04-26 09:19 | 63.75090 | -68.16238 | 4456 ft | 167 kts | 198° |
| 2026-04-26 09:19 | 63.73970 | -68.16958 | 4456 ft | 167 kts | 198° |
| 2026-04-26 09:19 | 63.72864 | -68.17679 | 4455 ft | 168 kts | 198° |
| 2026-04-26 09:19 | 63.71738 | -68.18395 | 4453 ft | 167 kts | 198° |
| 2026-04-26 09:20 | 63.70616 | -68.19117 | 4453 ft | 167 kts | 198° |
| 2026-04-26 09:20 | 63.69495 | -68.19843 | 4454 ft | 167 kts | 198° |
| 2026-04-26 09:20 | 63.68378 | -68.20566 | 4453 ft | 167 kts | 198° |
| 2026-04-26 09:20 | 63.67263 | -68.21292 | 4455 ft | 167 kts | 198° |
| 2026-04-26 09:21 | 63.66146 | -68.22016 | 4456 ft | 167 kts | 198° |
| 2026-04-26 09:21 | 63.65029 | -68.22741 | 4456 ft | 167 kts | 198° |
| 2026-04-26 09:21 | 63.63900 | -68.23475 | 4453 ft | 169 kts | 198° |
| 2026-04-26 09:21 | 63.62778 | -68.24207 | 4455 ft | 171 kts | 198° |
| 2026-04-26 09:22 | 63.61637 | -68.24955 | 4457 ft | 171 kts | 198° |
| 2026-04-26 09:22 | 63.60486 | -68.25708 | 4456 ft | 172 kts | 198° |
| 2026-04-26 09:22 | 63.59338 | -68.26454 | 4459 ft | 171 kts | 198° |
| 2026-04-26 09:22 | 63.58195 | -68.27194 | 4457 ft | 170 kts | 198° |
| 2026-04-26 09:23 | 63.57060 | -68.27937 | 4453 ft | 170 kts | 198° |
| 2026-04-26 09:23 | 63.55915 | -68.28691 | 4457 ft | 171 kts | 198° |
| 2026-04-26 09:23 | 63.54761 | -68.29446 | 4447 ft | 173 kts | 198° |
| 2026-04-26 09:23 | 63.53628 | -68.30186 | 4439 ft | 171 kts | 198° |
| 2026-04-26 09:24 | 63.52483 | -68.30933 | 4438 ft | 170 kts | 198° |
| 2026-04-26 09:24 | 63.51342 | -68.31679 | 4446 ft | 171 kts | 198° |
| 2026-04-26 09:24 | 63.50198 | -68.32426 | 4446 ft | 171 kts | 198° |
| 2026-04-26 09:24 | 63.49054 | -68.33174 | 4443 ft | 173 kts | 199° |
| 2026-04-26 09:25 | 63.47896 | -68.33926 | 4446 ft | 172 kts | 198° |
| 2026-04-26 09:25 | 63.46747 | -68.34672 | 4445 ft | 172 kts | 198° |
| 2026-04-26 09:25 | 63.45605 | -68.35410 | 4446 ft | 170 kts | 199° |
| 2026-04-26 09:25 | 63.44465 | -68.36154 | 4445 ft | 172 kts | 199° |
| 2026-04-26 09:26 | 63.43330 | -68.36893 | 4441 ft | 172 kts | 198° |
| 2026-04-26 09:26 | 63.42178 | -68.37644 | 4442 ft | 173 kts | 198° |
| 2026-04-26 09:26 | 63.41030 | -68.38392 | 4443 ft | 172 kts | 199° |
| 2026-04-26 09:26 | 63.39887 | -68.39137 | 4443 ft | 170 kts | 199° |
| 2026-04-26 09:27 | 63.38750 | -68.39881 | 4439 ft | 171 kts | 198° |
| 2026-04-26 09:27 | 63.37605 | -68.40625 | 4445 ft | 171 kts | 198° |
| 2026-04-26 09:27 | 63.36446 | -68.41369 | 4448 ft | 173 kts | 198° |
| 2026-04-26 09:27 | 63.35297 | -68.42117 | 4447 ft | 172 kts | 198° |
| 2026-04-26 09:28 | 63.34155 | -68.42901 | 4432 ft | 169 kts | 200° |
| 2026-04-26 09:28 | 63.33049 | -68.43664 | 4434 ft | 169 kts | 198° |
| 2026-04-26 09:28 | 63.31912 | -68.44372 | 4436 ft | 169 kts | 198° |
| 2026-04-26 09:28 | 63.30789 | -68.45130 | 4429 ft | 168 kts | 199° |
| 2026-04-26 09:29 | 63.29659 | -68.45871 | 4433 ft | 169 kts | 199° |
| 2026-04-26 09:29 | 63.28530 | -68.46605 | 4438 ft | 169 kts | 199° |
| 2026-04-26 09:29 | 63.27400 | -68.47359 | 4434 ft | 169 kts | 199° |
| 2026-04-26 09:29 | 63.26273 | -68.48118 | 4432 ft | 169 kts | 199° |
| 2026-04-26 09:30 | 63.25148 | -68.48843 | 4426 ft | 168 kts | 198° |
| 2026-04-26 09:30 | 63.24041 | -68.49591 | 4430 ft | 169 kts | 199° |
| 2026-04-26 09:30 | 63.22913 | -68.50313 | 4431 ft | 168 kts | 198° |
| 2026-04-26 09:30 | 63.21784 | -68.51053 | 4435 ft | 169 kts | 198° |
| 2026-04-26 09:31 | 63.20652 | -68.51773 | 4437 ft | 169 kts | 199° |
| 2026-04-26 09:31 | 63.19524 | -68.52540 | 4432 ft | 168 kts | 198° |
| 2026-04-26 09:31 | 63.18403 | -68.53276 | 4428 ft | 168 kts | 198° |
| 2026-04-26 09:31 | 63.17281 | -68.53987 | 4430 ft | 168 kts | 198° |
| 2026-04-26 09:32 | 63.16164 | -68.54725 | 4431 ft | 168 kts | 200° |
| 2026-04-26 09:32 | 63.15046 | -68.55481 | 4429 ft | 168 kts | 199° |
| 2026-04-26 09:32 | 63.13923 | -68.56211 | 4437 ft | 168 kts | 199° |
| 2026-04-26 09:32 | 63.12811 | -68.56938 | 4433 ft | 169 kts | 199° |
| 2026-04-26 09:33 | 63.11690 | -68.57704 | 4435 ft | 168 kts | 200° |
| 2026-04-26 09:33 | 63.10567 | -68.58442 | 4413 ft | 168 kts | 198° |
| 2026-04-26 09:33 | 63.09449 | -68.59203 | 4420 ft | 168 kts | 199° |
| 2026-04-26 09:33 | 63.08328 | -68.59937 | 4419 ft | 168 kts | 199° |
| 2026-04-26 09:34 | 63.07201 | -68.60663 | 4413 ft | 169 kts | 199° |
| 2026-04-26 09:34 | 63.06074 | -68.61408 | 4422 ft | 169 kts | 199° |
| 2026-04-26 09:34 | 63.04943 | -68.62131 | 4416 ft | 169 kts | 199° |
| 2026-04-26 09:34 | 63.03818 | -68.62886 | 4418 ft | 169 kts | 199° |
| 2026-04-26 09:35 | 63.02705 | -68.63602 | 4414 ft | 168 kts | 198° |
| 2026-04-26 09:35 | 63.01581 | -68.64343 | 4420 ft | 168 kts | 199° |
| 2026-04-26 09:35 | 63.00459 | -68.65076 | 4421 ft | 167 kts | 199° |
| 2026-04-26 09:35 | 62.99338 | -68.65811 | 4407 ft | 168 kts | 199° |
| 2026-04-26 09:36 | 62.98220 | -68.66564 | 4407 ft | 168 kts | 200° |
| 2026-04-26 09:36 | 62.97097 | -68.67308 | 4408 ft | 169 kts | 199° |
| 2026-04-26 09:36 | 62.95977 | -68.68063 | 4413 ft | 169 kts | 199° |
| 2026-04-26 09:36 | 62.94858 | -68.68836 | 4414 ft | 168 kts | 200° |
| 2026-04-26 09:37 | 62.93770 | -68.69677 | 4408 ft | 168 kts | 202° |
| 2026-04-26 09:37 | 62.92671 | -68.70542 | 4405 ft | 168 kts | 202° |
| 2026-04-26 09:37 | 62.91558 | -68.71316 | 4401 ft | 168 kts | 198° |
| 2026-04-26 09:37 | 62.90417 | -68.71896 | 4406 ft | 169 kts | 193° |
| 2026-04-26 09:38 | 62.89257 | -68.72214 | 4407 ft | 168 kts | 182° |
| 2026-04-26 09:38 | 62.88084 | -68.72291 | 4406 ft | 168 kts | 183° |
| 2026-04-26 09:38 | 62.86908 | -68.72371 | 4396 ft | 169 kts | 182° |
| 2026-04-26 09:38 | 62.85732 | -68.72458 | 4396 ft | 169 kts | 183° |
| 2026-04-26 09:39 | 62.84557 | -68.72587 | 4397 ft | 168 kts | 184° |
| 2026-04-26 09:39 | 62.83383 | -68.72756 | 4400 ft | 169 kts | 186° |
| 2026-04-26 09:39 | 62.82224 | -68.73042 | 4403 ft | 169 kts | 188° |
| 2026-04-26 09:39 | 62.81056 | -68.73426 | 4402 ft | 170 kts | 191° |
| 2026-04-26 09:40 | 62.79890 | -68.73843 | 4396 ft | 169 kts | 191° |
| 2026-04-26 09:40 | 62.78730 | -68.74291 | 4395 ft | 169 kts | 192° |
| 2026-04-26 09:40 | 62.77567 | -68.74714 | 4390 ft | 169 kts | 190° |
| 2026-04-26 09:40 | 62.76414 | -68.75079 | 4398 ft | 169 kts | 190° |
| 2026-04-26 09:41 | 62.75249 | -68.75471 | 4397 ft | 169 kts | 190° |
| 2026-04-26 09:41 | 62.74107 | -68.75788 | 4391 ft | 164 kts | 188° |
| 2026-04-26 09:41 | 62.72969 | -68.76049 | 4388 ft | 165 kts | 187° |
| 2026-04-26 09:41 | 62.71827 | -68.76294 | 4386 ft | 165 kts | 187° |
| 2026-04-26 09:42 | 62.70685 | -68.76548 | 4390 ft | 165 kts | 188° |
| 2026-04-26 09:42 | 62.69546 | -68.76853 | 4387 ft | 164 kts | 189° |
| 2026-04-26 09:42 | 62.68410 | -68.77189 | 4390 ft | 165 kts | 189° |
| 2026-04-26 09:42 | 62.67270 | -68.77506 | 4387 ft | 165 kts | 189° |
| 2026-04-26 09:43 | 62.66136 | -68.77827 | 4388 ft | 165 kts | 189° |
| 2026-04-26 09:43 | 62.64995 | -68.78096 | 4389 ft | 164 kts | 187° |
| 2026-04-26 09:43 | 62.63854 | -68.78350 | 4390 ft | 165 kts | 188° |
| 2026-04-26 09:43 | 62.62713 | -68.78636 | 4383 ft | 165 kts | 188° |
| 2026-04-26 09:44 | 62.61585 | -68.78934 | 4378 ft | 165 kts | 189° |
| 2026-04-26 09:44 | 62.60449 | -68.79289 | 4380 ft | 165 kts | 191° |
| 2026-04-26 09:44 | 62.59311 | -68.79698 | 4383 ft | 165 kts | 191° |
| 2026-04-26 09:44 | 62.58167 | -68.80078 | 4384 ft | 166 kts | 190° |
| 2026-04-26 09:45 | 62.57022 | -68.80400 | 4382 ft | 166 kts | 188° |
| 2026-04-26 09:45 | 62.55877 | -68.80682 | 4381 ft | 166 kts | 188° |
| 2026-04-26 09:45 | 62.54728 | -68.80946 | 4380 ft | 166 kts | 187° |
| 2026-04-26 09:45 | 62.53595 | -68.81205 | 4378 ft | 166 kts | 188° |
| 2026-04-26 09:46 | 62.52447 | -68.81480 | 4374 ft | 165 kts | 188° |
| 2026-04-26 09:46 | 62.51310 | -68.81783 | 4378 ft | 165 kts | 189° |
| 2026-04-26 09:46 | 62.50175 | -68.82110 | 4392 ft | 162 kts | 189° |
| 2026-04-26 09:46 | 62.49071 | -68.82413 | 4474 ft | 160 kts | 189° |
| 2026-04-26 09:47 | 62.47957 | -68.82720 | 4474 ft | 162 kts | 189° |
| 2026-04-26 09:47 | 62.46834 | -68.83031 | 4484 ft | 163 kts | 190° |
| 2026-04-26 09:47 | 62.45706 | -68.83366 | 4481 ft | 164 kts | 189° |
| 2026-04-26 09:47 | 62.44569 | -68.83659 | 4478 ft | 164 kts | 189° |
| 2026-04-26 09:48 | 62.43432 | -68.83937 | 4474 ft | 165 kts | 188° |
| 2026-04-26 09:48 | 62.42310 | -68.84240 | 4474 ft | 165 kts | 189° |
| 2026-04-26 09:48 | 62.41172 | -68.84562 | 4475 ft | 165 kts | 188° |
| 2026-04-26 09:48 | 62.40031 | -68.84872 | 4474 ft | 165 kts | 188° |
| 2026-04-26 09:49 | 62.38891 | -68.85169 | 4475 ft | 165 kts | 188° |
| 2026-04-26 09:49 | 62.37747 | -68.85466 | 4466 ft | 166 kts | 188° |
| 2026-04-26 09:49 | 62.36607 | -68.85788 | 4467 ft | 165 kts | 189° |
| 2026-04-26 09:49 | 62.35466 | -68.86121 | 4467 ft | 166 kts | 188° |
| 2026-04-26 09:50 | 62.34321 | -68.86400 | 4466 ft | 165 kts | 188° |
| 2026-04-26 09:50 | 62.33180 | -68.86689 | 4466 ft | 165 kts | 188° |
| 2026-04-26 09:50 | 62.32054 | -68.86979 | 4466 ft | 165 kts | 188° |
| 2026-04-26 09:50 | 62.30915 | -68.87274 | 4466 ft | 165 kts | 188° |
| 2026-04-26 09:51 | 62.29776 | -68.87574 | 4466 ft | 165 kts | 188° |
| 2026-04-26 09:51 | 62.28635 | -68.87882 | 4466 ft | 165 kts | 188° |
| 2026-04-26 09:51 | 62.27498 | -68.88187 | 4467 ft | 165 kts | 188° |
| 2026-04-26 09:51 | 62.26357 | -68.88494 | 4466 ft | 165 kts | 188° |
| 2026-04-26 09:52 | 62.25219 | -68.88806 | 4462 ft | 165 kts | 189° |
| 2026-04-26 09:52 | 62.23325 | -68.89307 | 4461 ft | 165 kts | 188° |
| 2026-04-26 09:52 | 62.22185 | -68.89602 | 4461 ft | 165 kts | 188° |
| 2026-04-26 09:53 | 62.21045 | -68.89899 | 4461 ft | 165 kts | 188° |
| 2026-04-26 09:53 | 62.19905 | -68.90195 | 4461 ft | 165 kts | 188° |
| 2026-04-26 09:53 | 62.18780 | -68.90492 | 4461 ft | 165 kts | 188° |
| 2026-04-26 09:53 | 62.17641 | -68.90794 | 4461 ft | 165 kts | 188° |
| 2026-04-26 09:54 | 62.16497 | -68.91089 | 4461 ft | 165 kts | 188° |
| 2026-04-26 09:54 | 62.15360 | -68.91379 | 4461 ft | 165 kts | 188° |
| 2026-04-26 09:54 | 62.14220 | -68.91677 | 4461 ft | 165 kts | 188° |
| 2026-04-26 09:54 | 62.13081 | -68.91979 | 4447 ft | 164 kts | 189° |
| 2026-04-26 09:55 | 62.11956 | -68.92303 | 4455 ft | 163 kts | 189° |
| 2026-04-26 09:55 | 62.10829 | -68.92618 | 4456 ft | 163 kts | 188° |
| 2026-04-26 09:55 | 62.09718 | -68.92914 | 4456 ft | 163 kts | 188° |
| 2026-04-26 09:55 | 62.08589 | -68.93205 | 4455 ft | 163 kts | 188° |
| 2026-04-26 09:56 | 62.07459 | -68.93488 | 4454 ft | 163 kts | 188° |
| 2026-04-26 09:56 | 62.06330 | -68.93769 | 4456 ft | 163 kts | 188° |
| 2026-04-26 09:56 | 62.05200 | -68.94051 | 4456 ft | 163 kts | 188° |
| 2026-04-26 09:56 | 62.04069 | -68.94338 | 4456 ft | 163 kts | 188° |
| 2026-04-26 09:57 | 62.02955 | -68.94627 | 4457 ft | 163 kts | 188° |
| 2026-04-26 09:57 | 62.01827 | -68.94918 | 4456 ft | 163 kts | 188° |
| 2026-04-26 09:57 | 62.00699 | -68.95212 | 4455 ft | 163 kts | 188° |
| 2026-04-26 09:57 | 61.99572 | -68.95507 | 4455 ft | 163 kts | 188° |
| 2026-04-26 09:58 | 61.98443 | -68.95803 | 4454 ft | 163 kts | 188° |
| 2026-04-26 09:58 | 61.97314 | -68.96099 | 4456 ft | 163 kts | 188° |
| 2026-04-26 09:58 | 61.96188 | -68.96395 | 4455 ft | 163 kts | 188° |
| 2026-04-26 09:58 | 61.95060 | -68.96692 | 4455 ft | 163 kts | 188° |
| 2026-04-26 09:59 | 61.93933 | -68.96987 | 4457 ft | 163 kts | 188° |
| 2026-04-26 09:59 | 61.92817 | -68.97277 | 4456 ft | 163 kts | 188° |
| 2026-04-26 09:59 | 61.91685 | -68.97569 | 4456 ft | 163 kts | 188° |
| 2026-04-26 09:59 | 61.90557 | -68.97857 | 4456 ft | 163 kts | 188° |
| 2026-04-26 10:00 | 61.89428 | -68.98146 | 4456 ft | 163 kts | 188° |
| 2026-04-26 10:00 | 61.88301 | -68.98434 | 4458 ft | 163 kts | 188° |
| 2026-04-26 10:00 | 61.87172 | -68.98723 | 4458 ft | 163 kts | 188° |
| 2026-04-26 10:00 | 61.86044 | -68.99013 | 4458 ft | 163 kts | 188° |
| 2026-04-26 10:01 | 61.84917 | -68.99304 | 4458 ft | 163 kts | 188° |
| 2026-04-26 10:01 | 61.83787 | -68.99601 | 4456 ft | 163 kts | 188° |
| 2026-04-26 10:01 | 61.82659 | -68.99896 | 4449 ft | 163 kts | 188° |
| 2026-04-26 10:01 | 61.81534 | -69.00195 | 4454 ft | 163 kts | 188° |
| 2026-04-26 10:02 | 61.80407 | -69.00494 | 4455 ft | 163 kts | 188° |
| 2026-04-26 10:02 | 61.79281 | -69.00786 | 4456 ft | 163 kts | 187° |
| 2026-04-26 10:02 | 61.78168 | -69.01064 | 4456 ft | 163 kts | 187° |
| 2026-04-26 10:02 | 61.77040 | -69.01351 | 4456 ft | 163 kts | 187° |
| 2026-04-26 10:03 | 61.75914 | -69.01636 | 4455 ft | 163 kts | 187° |
| 2026-04-26 10:03 | 61.74788 | -69.01918 | 4456 ft | 163 kts | 187° |
| 2026-04-26 10:03 | 61.73660 | -69.02204 | 4455 ft | 163 kts | 188° |
| 2026-04-26 10:03 | 61.72530 | -69.02496 | 4456 ft | 163 kts | 187° |
| 2026-04-26 10:04 | 61.71404 | -69.02781 | 4454 ft | 163 kts | 187° |
| 2026-04-26 10:04 | 61.70277 | -69.03064 | 4456 ft | 163 kts | 187° |
| 2026-04-26 10:04 | 61.69167 | -69.03341 | 4455 ft | 163 kts | 187° |
| 2026-04-26 10:04 | 61.68041 | -69.03626 | 4456 ft | 163 kts | 187° |
| 2026-04-26 10:05 | 61.66916 | -69.03952 | 4457 ft | 163 kts | 189° |
| 2026-04-26 10:05 | 61.65795 | -69.04345 | 4456 ft | 163 kts | 191° |
| 2026-04-26 10:05 | 61.64677 | -69.04763 | 4455 ft | 163 kts | 191° |
| 2026-04-26 10:05 | 61.63558 | -69.05181 | 4461 ft | 164 kts | 191° |
| 2026-04-26 10:06 | 61.62423 | -69.05596 | 4466 ft | 167 kts | 191° |
| 2026-04-26 10:06 | 61.61272 | -69.06003 | 4464 ft | 168 kts | 190° |
| 2026-04-26 10:06 | 61.60119 | -69.06404 | 4462 ft | 168 kts | 190° |
| 2026-04-26 10:06 | 61.58964 | -69.06791 | 4460 ft | 167 kts | 190° |
| 2026-04-26 10:07 | 61.57816 | -69.07179 | 4461 ft | 167 kts | 190° |
| 2026-04-26 10:07 | 61.56661 | -69.07569 | 4465 ft | 169 kts | 190° |
| 2026-04-26 10:07 | 61.55497 | -69.07963 | 4463 ft | 170 kts | 190° |
| 2026-04-26 10:07 | 61.54331 | -69.08368 | 4462 ft | 170 kts | 190° |
| 2026-04-26 10:08 | 61.53161 | -69.08770 | 4461 ft | 170 kts | 190° |
| 2026-04-26 10:08 | 61.51994 | -69.09169 | 4463 ft | 170 kts | 190° |
| 2026-04-26 10:08 | 61.50833 | -69.09568 | 4466 ft | 170 kts | 190° |
| 2026-04-26 10:08 | 61.49665 | -69.09976 | 4466 ft | 170 kts | 190° |
| 2026-04-26 10:09 | 61.48492 | -69.10373 | 4467 ft | 170 kts | 190° |
| 2026-04-26 10:09 | 61.47320 | -69.10783 | 4467 ft | 171 kts | 191° |
| 2026-04-26 10:09 | 61.46144 | -69.11187 | 4466 ft | 171 kts | 189° |
| 2026-04-26 10:09 | 61.44966 | -69.11561 | 4466 ft | 171 kts | 189° |
| 2026-04-26 10:10 | 61.43794 | -69.11943 | 4466 ft | 170 kts | 190° |
| 2026-04-26 10:10 | 61.42624 | -69.12349 | 4466 ft | 171 kts | 190° |
| 2026-04-26 10:10 | 61.41449 | -69.12752 | 4467 ft | 171 kts | 190° |
| 2026-04-26 10:10 | 61.40285 | -69.13143 | 4469 ft | 171 kts | 190° |
| 2026-04-26 10:11 | 61.39111 | -69.13556 | 4469 ft | 171 kts | 190° |
| 2026-04-26 10:11 | 61.37938 | -69.13956 | 4469 ft | 171 kts | 190° |
| 2026-04-26 10:11 | 61.36770 | -69.14369 | 4469 ft | 170 kts | 190° |
| 2026-04-26 10:11 | 61.35597 | -69.14764 | 4469 ft | 171 kts | 189° |
| 2026-04-26 10:12 | 61.34420 | -69.15143 | 4469 ft | 172 kts | 189° |
| 2026-04-26 10:12 | 61.33238 | -69.15541 | 4469 ft | 171 kts | 190° |
| 2026-04-26 10:12 | 61.32066 | -69.15955 | 4469 ft | 171 kts | 190° |
| 2026-04-26 10:12 | 61.30895 | -69.16356 | 4469 ft | 171 kts | 190° |
| 2026-04-26 10:13 | 61.29724 | -69.16753 | 4466 ft | 171 kts | 190° |
| 2026-04-26 10:13 | 61.28565 | -69.17138 | 4469 ft | 171 kts | 189° |
| 2026-04-26 10:13 | 61.27388 | -69.17519 | 4469 ft | 172 kts | 189° |
| 2026-04-26 10:13 | 61.26208 | -69.17912 | 4469 ft | 171 kts | 190° |
| 2026-04-26 10:14 | 61.25032 | -69.18306 | 4469 ft | 171 kts | 190° |
| 2026-04-26 10:14 | 61.23865 | -69.18727 | 4469 ft | 170 kts | 190° |
| 2026-04-26 10:14 | 61.22690 | -69.19117 | 4469 ft | 171 kts | 189° |
| 2026-04-26 10:14 | 61.21510 | -69.19507 | 4468 ft | 173 kts | 189° |
| 2026-04-26 10:15 | 61.20314 | -69.19886 | 4468 ft | 174 kts | 189° |
| 2026-04-26 10:15 | 61.19128 | -69.20286 | 4469 ft | 174 kts | 189° |
| 2026-04-26 10:15 | 61.17945 | -69.20675 | 4469 ft | 170 kts | 189° |
| 2026-04-26 10:15 | 61.16774 | -69.21087 | 4469 ft | 173 kts | 191° |
| 2026-04-26 10:16 | 61.15604 | -69.21466 | 4476 ft | 171 kts | 188° |
| 2026-04-26 10:16 | 61.14405 | -69.21843 | 4475 ft | 175 kts | 189° |
| 2026-04-26 10:16 | 61.13212 | -69.22254 | 4475 ft | 172 kts | 189° |
| 2026-04-26 10:16 | 61.12023 | -69.22654 | 4475 ft | 171 kts | 189° |
| 2026-04-26 10:17 | 61.10842 | -69.23041 | 4475 ft | 171 kts | 190° |
| 2026-04-26 10:17 | 61.09658 | -69.23461 | 4475 ft | 172 kts | 189° |
| 2026-04-26 10:17 | 61.08471 | -69.23838 | 4475 ft | 174 kts | 190° |
| 2026-04-26 10:17 | 61.07269 | -69.24243 | 4475 ft | 173 kts | 190° |
| 2026-04-26 10:18 | 61.06086 | -69.24682 | 4474 ft | 173 kts | 191° |
| 2026-04-26 10:18 | 61.04924 | -69.25102 | 4475 ft | 170 kts | 190° |
| 2026-04-26 10:18 | 61.03749 | -69.25483 | 4477 ft | 173 kts | 189° |
| 2026-04-26 10:18 | 61.02560 | -69.25851 | 4477 ft | 173 kts | 189° |
| 2026-04-26 10:19 | 61.01367 | -69.26229 | 4477 ft | 174 kts | 189° |
| 2026-04-26 10:19 | 61.00175 | -69.26608 | 4477 ft | 173 kts | 189° |
| 2026-04-26 10:19 | 60.98986 | -69.26987 | 4477 ft | 172 kts | 189° |
| 2026-04-26 10:19 | 60.97813 | -69.27378 | 4477 ft | 171 kts | 190° |
| 2026-04-26 10:20 | 60.96627 | -69.27782 | 4477 ft | 172 kts | 190° |
| 2026-04-26 10:20 | 60.95842 | -69.28046 | 4477 ft | 174 kts | 190° |
| 2026-04-26 10:20 | 60.94236 | -69.28579 | 4477 ft | 173 kts | 189° |
| 2026-04-26 10:20 | 60.93048 | -69.28977 | 4477 ft | 174 kts | 190° |
| 2026-04-26 10:21 | 60.91886 | -69.29362 | 4479 ft | 170 kts | 189° |
| 2026-04-26 10:21 | 60.90714 | -69.29741 | 4479 ft | 171 kts | 189° |
| 2026-04-26 10:21 | 60.89540 | -69.30113 | 4480 ft | 171 kts | 189° |
| 2026-04-26 10:21 | 60.88357 | -69.30498 | 4479 ft | 173 kts | 189° |
| 2026-04-26 10:22 | 60.87177 | -69.30890 | 4480 ft | 170 kts | 189° |
| 2026-04-26 10:22 | 60.86002 | -69.31278 | 4480 ft | 170 kts | 189° |
| 2026-04-26 10:22 | 60.84838 | -69.31661 | 4480 ft | 170 kts | 189° |
| 2026-04-26 10:22 | 60.83663 | -69.32043 | 4479 ft | 171 kts | 189° |
| 2026-04-26 10:23 | 60.82487 | -69.32428 | 4480 ft | 172 kts | 189° |
| 2026-04-26 10:23 | 60.81305 | -69.32818 | 4480 ft | 171 kts | 189° |
| 2026-04-26 10:23 | 60.80145 | -69.33198 | 4480 ft | 172 kts | 189° |
| 2026-04-26 10:23 | 60.78973 | -69.33575 | 4480 ft | 169 kts | 189° |
| 2026-04-26 10:24 | 60.77807 | -69.33962 | 4480 ft | 171 kts | 189° |
| 2026-04-26 10:24 | 60.76632 | -69.34349 | 4480 ft | 170 kts | 189° |
| 2026-04-26 10:24 | 60.75447 | -69.34732 | 4480 ft | 173 kts | 189° |
| 2026-04-26 10:24 | 60.74266 | -69.35110 | 4480 ft | 170 kts | 189° |
| 2026-04-26 10:25 | 60.73090 | -69.35468 | 4481 ft | 170 kts | 189° |
| 2026-04-26 10:25 | 60.71923 | -69.35893 | 4480 ft | 169 kts | 191° |
| 2026-04-26 10:25 | 60.70751 | -69.36293 | 4480 ft | 171 kts | 189° |
| 2026-04-26 10:25 | 60.69592 | -69.36679 | 4480 ft | 172 kts | 190° |
| 2026-04-26 10:26 | 60.68399 | -69.37045 | 4477 ft | 172 kts | 188° |
| 2026-04-26 10:26 | 60.67215 | -69.37361 | 4478 ft | 172 kts | 187° |
| 2026-04-26 10:26 | 60.66041 | -69.37733 | 4476 ft | 169 kts | 191° |
| 2026-04-26 10:26 | 60.64878 | -69.38145 | 4477 ft | 171 kts | 189° |
| 2026-04-26 10:27 | 60.63702 | -69.38514 | 4477 ft | 170 kts | 188° |
| 2026-04-26 10:27 | 60.62530 | -69.38916 | 4477 ft | 170 kts | 190° |
| 2026-04-26 10:27 | 60.61363 | -69.39323 | 4474 ft | 168 kts | 189° |
| 2026-04-26 10:27 | 60.60218 | -69.39715 | 4477 ft | 169 kts | 189° |
| 2026-04-26 10:28 | 60.59066 | -69.40087 | 4477 ft | 167 kts | 188° |
| 2026-04-26 10:28 | 60.57908 | -69.40423 | 4477 ft | 169 kts | 188° |
| 2026-04-26 10:28 | 60.56746 | -69.40774 | 4477 ft | 170 kts | 188° |
| 2026-04-26 10:28 | 60.55573 | -69.41131 | 4477 ft | 170 kts | 188° |
| 2026-04-26 10:29 | 60.54409 | -69.41520 | 4478 ft | 169 kts | 189° |
| 2026-04-26 10:29 | 60.53251 | -69.41925 | 4475 ft | 168 kts | 189° |
| 2026-04-26 10:29 | 60.52092 | -69.42302 | 4477 ft | 168 kts | 188° |
| 2026-04-26 10:29 | 60.50930 | -69.42673 | 4477 ft | 168 kts | 189° |
| 2026-04-26 10:30 | 60.49766 | -69.43033 | 4476 ft | 170 kts | 188° |
| 2026-04-26 10:30 | 60.48608 | -69.43394 | 4477 ft | 170 kts | 189° |
| 2026-04-26 10:30 | 60.47444 | -69.43762 | 4477 ft | 170 kts | 188° |
| 2026-04-26 10:30 | 60.46283 | -69.44127 | 4477 ft | 168 kts | 188° |
| 2026-04-26 10:31 | 60.45127 | -69.44493 | 4479 ft | 169 kts | 188° |
| 2026-04-26 10:31 | 60.43963 | -69.44823 | 4478 ft | 169 kts | 187° |
| 2026-04-26 10:31 | 60.42794 | -69.45183 | 4478 ft | 170 kts | 190° |
| 2026-04-26 10:31 | 60.41631 | -69.45635 | 4477 ft | 168 kts | 191° |
| 2026-04-26 10:32 | 60.40489 | -69.46078 | 4478 ft | 169 kts | 189° |
| 2026-04-26 10:32 | 60.39335 | -69.46431 | 4474 ft | 167 kts | 188° |
| 2026-04-26 10:32 | 60.38175 | -69.46767 | 4477 ft | 169 kts | 187° |
| 2026-04-26 10:32 | 60.37011 | -69.47118 | 4478 ft | 170 kts | 188° |
| 2026-04-26 10:33 | 60.35843 | -69.47484 | 4477 ft | 170 kts | 188° |
| 2026-04-26 10:33 | 60.34674 | -69.47845 | 4477 ft | 169 kts | 188° |
| 2026-04-26 10:33 | 60.33510 | -69.48219 | 4478 ft | 169 kts | 189° |
| 2026-04-26 10:33 | 60.32359 | -69.48598 | 4477 ft | 167 kts | 188° |
| 2026-04-26 10:34 | 60.31209 | -69.48921 | 4477 ft | 167 kts | 187° |
| 2026-04-26 10:34 | 60.30059 | -69.49241 | 4477 ft | 167 kts | 187° |
| 2026-04-26 10:34 | 60.28904 | -69.49577 | 4477 ft | 167 kts | 187° |
| 2026-04-26 10:34 | 60.27756 | -69.49950 | 4478 ft | 167 kts | 189° |
| 2026-04-26 10:35 | 60.26629 | -69.50388 | 4478 ft | 167 kts | 191° |
| 2026-04-26 10:35 | 60.25488 | -69.50812 | 4477 ft | 168 kts | 188° |
| 2026-04-26 10:35 | 60.24331 | -69.51173 | 4467 ft | 168 kts | 188° |
| 2026-04-26 10:35 | 60.23166 | -69.51555 | 4469 ft | 170 kts | 188° |
| 2026-04-26 10:36 | 60.21998 | -69.51902 | 4473 ft | 169 kts | 186° |
| 2026-04-26 10:36 | 60.20827 | -69.52208 | 4470 ft | 170 kts | 185° |
| 2026-04-26 10:36 | 60.19670 | -69.52576 | 4472 ft | 167 kts | 188° |
| 2026-04-26 10:36 | 60.18509 | -69.52967 | 4472 ft | 170 kts | 188° |
| 2026-04-26 10:37 | 60.17359 | -69.53331 | 4472 ft | 170 kts | 188° |
| 2026-04-26 10:37 | 60.16185 | -69.53707 | 4472 ft | 170 kts | 187° |
| 2026-04-26 10:37 | 60.15014 | -69.54058 | 4473 ft | 169 kts | 187° |
| 2026-04-26 10:37 | 60.13850 | -69.54452 | 4472 ft | 170 kts | 188° |
| 2026-04-26 10:38 | 60.12690 | -69.54781 | 4472 ft | 168 kts | 186° |
| 2026-04-26 10:38 | 60.11523 | -69.55132 | 4472 ft | 169 kts | 188° |
| 2026-04-26 10:38 | 60.10354 | -69.55486 | 4472 ft | 171 kts | 187° |
| 2026-04-26 10:38 | 60.09173 | -69.55841 | 4472 ft | 170 kts | 188° |
| 2026-04-26 10:39 | 60.08025 | -69.56234 | 4472 ft | 170 kts | 188° |
| 2026-04-26 10:39 | 60.06861 | -69.56599 | 4472 ft | 169 kts | 187° |
| 2026-04-26 10:39 | 60.05697 | -69.56943 | 4472 ft | 170 kts | 187° |
| 2026-04-26 10:39 | 60.04531 | -69.57327 | 4472 ft | 170 kts | 189° |
| 2026-04-26 10:40 | 60.03367 | -69.57757 | 4472 ft | 171 kts | 188° |
| 2026-04-26 10:40 | 60.02585 | -69.57991 | 4472 ft | 170 kts | 186° |
| 2026-04-26 10:40 | 60.01411 | -69.58270 | 4472 ft | 170 kts | 185° |
| 2026-04-26 10:40 | 60.00243 | -69.58585 | 4472 ft | 168 kts | 187° |
| 2026-04-26 10:41 | 59.99090 | -69.58963 | 4472 ft | 170 kts | 188° |
| 2026-04-26 10:41 | 59.97922 | -69.59344 | 4469 ft | 169 kts | 187° |
| 2026-04-26 10:41 | 59.96751 | -69.59734 | 4469 ft | 170 kts | 188° |
| 2026-04-26 10:41 | 59.95584 | -69.60141 | 4469 ft | 169 kts | 188° |
| 2026-04-26 10:42 | 59.94420 | -69.60544 | 4469 ft | 169 kts | 188° |
| 2026-04-26 10:42 | 59.93273 | -69.60894 | 4470 ft | 168 kts | 187° |
| 2026-04-26 10:42 | 59.92106 | -69.61216 | 4469 ft | 170 kts | 186° |
| 2026-04-26 10:42 | 59.90940 | -69.61577 | 4469 ft | 170 kts | 188° |
| 2026-04-26 10:43 | 59.89764 | -69.61929 | 4469 ft | 170 kts | 186° |
| 2026-04-26 10:43 | 59.88594 | -69.62229 | 4469 ft | 170 kts | 186° |
| 2026-04-26 10:43 | 59.87426 | -69.62590 | 4469 ft | 169 kts | 189° |
| 2026-04-26 10:43 | 59.86261 | -69.62969 | 4469 ft | 169 kts | 187° |
| 2026-04-26 10:44 | 59.85090 | -69.63313 | 4469 ft | 169 kts | 187° |
| 2026-04-26 10:44 | 59.83924 | -69.63738 | 4469 ft | 171 kts | 189° |
| 2026-04-26 10:44 | 59.82752 | -69.64138 | 4468 ft | 170 kts | 187° |
| 2026-04-26 10:44 | 59.81583 | -69.64455 | 4467 ft | 170 kts | 185° |
| 2026-04-26 10:45 | 59.80419 | -69.64735 | 4470 ft | 167 kts | 187° |
| 2026-04-26 10:45 | 59.79263 | -69.65106 | 4469 ft | 170 kts | 188° |
| 2026-04-26 10:45 | 59.78101 | -69.65527 | 4469 ft | 170 kts | 189° |
| 2026-04-26 10:45 | 59.76926 | -69.65867 | 4469 ft | 170 kts | 186° |
| 2026-04-26 10:46 | 59.75758 | -69.66218 | 4470 ft | 169 kts | 187° |
| 2026-04-26 10:46 | 59.74590 | -69.66605 | 4470 ft | 170 kts | 188° |
| 2026-04-26 10:46 | 59.73426 | -69.66972 | 4469 ft | 168 kts | 186° |
| 2026-04-26 10:46 | 59.72267 | -69.67310 | 4469 ft | 171 kts | 186° |
| 2026-04-26 10:47 | 59.71099 | -69.67719 | 4469 ft | 171 kts | 188° |
| 2026-04-26 10:47 | 59.69917 | -69.68094 | 4470 ft | 171 kts | 185° |
| 2026-04-26 10:47 | 59.68738 | -69.68353 | 4469 ft | 170 kts | 184° |
| 2026-04-26 10:47 | 59.67563 | -69.68619 | 4469 ft | 169 kts | 185° |
| 2026-04-26 10:48 | 59.66394 | -69.68971 | 4469 ft | 169 kts | 187° |
| 2026-04-26 10:48 | 59.65237 | -69.69377 | 4469 ft | 169 kts | 187° |
| 2026-04-26 10:48 | 59.64072 | -69.69786 | 4467 ft | 170 kts | 188° |
| 2026-04-26 10:48 | 59.62907 | -69.70213 | 4469 ft | 168 kts | 186° |
| 2026-04-26 10:49 | 59.61743 | -69.70524 | 4469 ft | 169 kts | 185° |
| 2026-04-26 10:49 | 59.60584 | -69.70819 | 4470 ft | 167 kts | 186° |
| 2026-04-26 10:49 | 59.59435 | -69.71182 | 4470 ft | 170 kts | 188° |
| 2026-04-26 10:49 | 59.58323 | -69.71565 | 4538 ft | 157 kts | 187° |
| 2026-04-26 10:50 | 59.57213 | -69.71906 | 4312 ft | 167 kts | 185° |
| 2026-04-26 10:50 | 59.56454 | -69.72124 | 4197 ft | 165 kts | 185° |
| 2026-04-26 10:50 | 59.54931 | -69.72532 | 3897 ft | 163 kts | 186° |
| 2026-04-26 10:50 | 59.53805 | -69.72870 | 3673 ft | 163 kts | 185° |
| 2026-04-26 10:51 | 59.52685 | -69.73210 | 3465 ft | 164 kts | 186° |
| 2026-04-26 10:51 | 59.50446 | -69.73952 | 3071 ft | 164 kts | 185° |
| 2026-04-26 10:51 | 59.49330 | -69.74279 | 2885 ft | 161 kts | 185° |
| 2026-04-26 10:52 | 59.48219 | -69.74612 | 2695 ft | 161 kts | 186° |
| 2026-04-26 10:52 | 59.47115 | -69.74928 | 2508 ft | 161 kts | 185° |
| 2026-04-26 10:52 | 59.46015 | -69.75238 | 2339 ft | 158 kts | 185° |
| 2026-04-26 10:52 | 59.44928 | -69.75570 | 2169 ft | 158 kts | 186° |
| 2026-04-26 10:53 | 59.43841 | -69.75904 | 2002 ft | 159 kts | 186° |
| 2026-04-26 10:53 | 59.42760 | -69.76213 | 1843 ft | 158 kts | 185° |
| 2026-04-26 10:53 | 59.41663 | -69.76516 | 1697 ft | 159 kts | 186° |
| 2026-04-26 10:54 | 59.39478 | -69.77204 | 1469 ft | 159 kts | 188° |
| 2026-04-26 10:54 | 59.38404 | -69.77547 | 1456 ft | 160 kts | 187° |
| 2026-04-26 10:54 | 59.37306 | -69.77913 | 1467 ft | 160 kts | 187° |
| 2026-04-26 10:54 | 59.36207 | -69.78251 | 1473 ft | 160 kts | 185° |
| 2026-04-26 10:55 | 59.35106 | -69.78532 | 1523 ft | 158 kts | 186° |
| 2026-04-26 10:55 | 59.34016 | -69.78836 | 1527 ft | 159 kts | 186° |
| 2026-04-26 10:55 | 59.32913 | -69.79145 | 1530 ft | 160 kts | 187° |
| 2026-04-26 10:55 | 59.31817 | -69.79513 | 1567 ft | 159 kts | 188° |
| 2026-04-26 10:56 | 59.30719 | -69.79854 | 1565 ft | 161 kts | 185° |
| 2026-04-26 10:56 | 59.29610 | -69.80123 | 1567 ft | 160 kts | 186° |
| 2026-04-26 10:56 | 59.28511 | -69.80451 | 1579 ft | 160 kts | 186° |
| 2026-04-26 10:56 | 59.27409 | -69.80789 | 1581 ft | 160 kts | 187° |
| 2026-04-26 10:57 | 59.26325 | -69.81146 | 1581 ft | 159 kts | 188° |
| 2026-04-26 10:57 | 59.25231 | -69.81524 | 1541 ft | 160 kts | 186° |
| 2026-04-26 10:57 | 59.24121 | -69.81820 | 1504 ft | 160 kts | 185° |
| 2026-04-26 10:57 | 59.23021 | -69.82126 | 1475 ft | 160 kts | 186° |
| 2026-04-26 10:58 | 59.21915 | -69.82430 | 1435 ft | 161 kts | 185° |
| 2026-04-26 10:58 | 59.20813 | -69.82747 | 1432 ft | 159 kts | 186° |
| 2026-04-26 10:58 | 59.19714 | -69.83058 | 1413 ft | 160 kts | 187° |
| 2026-04-26 10:58 | 59.18614 | -69.83400 | 1433 ft | 160 kts | 187° |
| 2026-04-26 10:59 | 59.17531 | -69.83742 | 1446 ft | 159 kts | 188° |
| 2026-04-26 10:59 | 59.16442 | -69.84131 | 1453 ft | 159 kts | 189° |
| 2026-04-26 10:59 | 59.15342 | -69.84380 | 1396 ft | 163 kts | 168° |
| 2026-04-26 10:59 | 59.14421 | -69.83093 | 1322 ft | 162 kts | 120° |
| 2026-04-26 11:00 | 59.14110 | -69.81103 | 1512 ft | 148 kts | 97° |
| 2026-04-26 11:00 | 59.13958 | -69.79134 | 1567 ft | 145 kts | 94° |
| 2026-04-26 11:00 | 59.13854 | -69.77218 | 1529 ft | 138 kts | 93° |
| 2026-04-26 11:00 | 59.13745 | -69.75368 | 1491 ft | 133 kts | 92° |
| 2026-04-26 11:01 | 59.13707 | -69.73581 | 1414 ft | 134 kts | 86° |
| 2026-04-26 11:01 | 59.13749 | -69.71778 | 1381 ft | 131 kts | 81° |
| 2026-04-26 11:01 | 59.14087 | -69.70201 | 1429 ft | 123 kts | 53° |
| 2026-04-26 11:01 | 59.14566 | -69.68861 | 1470 ft | 120 kts | 53° |
| 2026-04-26 11:02 | 59.15103 | -69.67649 | 1510 ft | 119 kts | 42° |
| 2026-04-26 11:02 | 59.15828 | -69.66978 | 1542 ft | 109 kts | 15° |
| 2026-04-26 11:02 | 59.16565 | -69.66719 | 1427 ft | 106 kts | 14° |
| 2026-04-26 11:02 | 59.17275 | -69.66425 | 1361 ft | 104 kts | 14° |
| 2026-04-26 11:03 | 59.17979 | -69.66104 | 1296 ft | 104 kts | 16° |
| 2026-04-26 11:03 | 59.18683 | -69.65765 | 1272 ft | 104 kts | 16° |
| 2026-04-26 11:03 | 59.19372 | -69.65418 | 1249 ft | 103 kts | 15° |
| 2026-04-26 11:03 | 59.20080 | -69.65132 | 1223 ft | 104 kts | 13° |
| 2026-04-26 11:04 | 59.20797 | -69.64907 | 1179 ft | 104 kts | 9° |
| 2026-04-26 11:04 | 59.21515 | -69.64700 | 1133 ft | 104 kts | 13° |
| 2026-04-26 11:04 | 59.22217 | -69.64349 | 1064 ft | 105 kts | 18° |
| 2026-04-26 11:04 | 59.22912 | -69.63876 | 1074 ft | 104 kts | 20° |
| 2026-04-26 11:05 | 59.23585 | -69.63361 | 1099 ft | 104 kts | 24° |
| 2026-04-26 11:05 | 59.24240 | -69.62795 | 1116 ft | 102 kts | 19° |
| 2026-04-26 11:05 | 59.24917 | -69.62441 | 1082 ft | 98 kts | 14° |
| 2026-04-26 11:05 | 59.25565 | -69.62148 | 963 ft | 93 kts | 13° |
| 2026-04-26 11:06 | 59.26189 | -69.61854 | 832 ft | 91 kts | 15° |
| 2026-04-26 11:06 | 59.26597 | -69.61628 | 755 ft | 93 kts | 15° |
| 2026-04-26 11:06 | 59.27429 | -69.61200 | 525 ft | 92 kts | 15° |
| 2026-04-26 11:06 | 59.28045 | -69.60870 | 374 ft | 92 kts | 13° |
| 2026-04-26 11:07 | 59.28647 | -69.60538 | 272 ft | 87 kts | 15° |
| 2026-04-26 11:07 | 59.29214 | -69.60231 | 138 ft | 79 kts | 14° |
| 2026-04-26 11:07 | 59.29628 | -69.60016 | 126 ft | 45 kts | 16° |
| 2026-04-26 11:07 | 59.29795 | -69.59923 | 125 ft | 13 kts | 18° |
| 2026-04-26 11:08 | 59.29858 | -69.59883 | 129 ft | 9 kts | 15° |
| 2026-04-26 11:08 | 59.29931 | -69.59843 | 125 ft | 12 kts | 14° |
| 2026-04-26 11:08 | 59.30010 | -69.59803 | 121 ft | 11 kts | 14° |
| 2026-04-26 11:08 | 59.30073 | -69.59775 | 120 ft | 9 kts | 14° |
| 2026-04-26 11:09 | 59.30108 | -69.59797 | 121 ft | 6 kts | 291° |
| 2026-04-26 11:09 | 59.30108 | -69.59802 | 121 ft | 0 kts | 287° |